createdAt,value
2022-08-19T00:01:53.818Z,12.63
2022-08-19T00:04:23.149Z,13.07
2022-08-19T00:06:49.847Z,12.63
2022-08-19T00:09:19.254Z,12.70
2022-08-19T00:11:47.377Z,12.00
2022-08-19T00:14:16.091Z,12.15
2022-08-19T00:16:44.217Z,11.98
2022-08-19T00:19:11.092Z,12.07
2022-08-19T00:21:37.717Z,12.40
2022-08-19T00:24:04.558Z,12.52
2022-08-19T00:26:31.233Z,12.40
2022-08-19T00:28:59.139Z,12.05
2022-08-19T00:31:25.703Z,12.38
2022-08-19T00:33:52.242Z,12.30
2022-08-19T00:36:18.814Z,11.93
2022-08-19T00:38:45.678Z,13.07
2022-08-19T00:41:15.472Z,12.25
2022-08-19T00:43:42.068Z,13.23
2022-08-19T00:46:10.157Z,12.95
2022-08-19T00:48:37.047Z,13.45
2022-08-19T00:51:07.396Z,13.50
2022-08-19T00:53:34.068Z,12.77
2022-08-19T00:56:03.212Z,12.55
2022-08-19T00:58:33.290Z,13.90
2022-08-19T01:01:00.608Z,12.65
2022-08-19T01:03:28.618Z,13.70
2022-08-19T01:05:56.365Z,13.23
2022-08-19T01:08:24.017Z,13.55
2022-08-19T01:10:54.505Z,14.13
2022-08-19T01:13:24.118Z,13.82
2022-08-19T01:15:54.706Z,13.75
2022-08-19T01:18:22.540Z,14.52
2022-08-19T01:20:51.638Z,13.88
2022-08-19T01:23:20.778Z,14.60
2022-08-19T01:25:50.412Z,13.20
2022-08-19T01:28:34.312Z,12.63
2022-08-19T01:31:08.353Z,13.98
2022-08-19T01:33:35.148Z,13.80
2022-08-19T01:36:07.764Z,13.00
2022-08-19T01:38:44.017Z,15.07
2022-08-19T01:41:11.819Z,15.63
2022-08-19T01:43:38.384Z,14.52
2022-08-19T01:46:25.184Z,14.80
2022-08-19T01:48:51.854Z,14.55
2022-08-19T01:51:18.450Z,14.55
2022-08-19T01:53:48.275Z,14.43
2022-08-19T01:56:14.979Z,15.13
2022-08-19T01:58:46.047Z,14.10
2022-08-19T02:01:13.367Z,13.85
2022-08-19T02:03:40.066Z,15.43
2022-08-19T02:06:07.034Z,14.63
2022-08-19T02:08:37.486Z,13.95
2022-08-19T02:11:07.832Z,14.45
2022-08-19T02:13:35.461Z,15.10
2022-08-19T02:16:04.289Z,14.50
2022-08-19T02:18:31.183Z,15.27
2022-08-19T02:20:57.765Z,16.85
2022-08-19T02:23:24.331Z,15.60
2022-08-19T02:25:52.477Z,15.88
2022-08-19T02:28:20.497Z,15.13
2022-08-19T02:30:48.662Z,15.10
2022-08-19T02:33:15.711Z,15.15
2022-08-19T02:35:43.133Z,14.95
2022-08-19T02:38:10.021Z,16.10
2022-08-19T02:40:37.886Z,15.63
2022-08-19T02:43:06.328Z,16.25
2022-08-19T02:45:34.736Z,16.20
2022-08-19T02:48:01.382Z,17.77
2022-08-19T02:50:30.053Z,18.48
2022-08-19T02:52:56.669Z,17.13
2022-08-19T02:55:23.299Z,17.83
2022-08-19T02:57:49.973Z,17.27
2022-08-19T03:00:17.163Z,18.13
2022-08-19T03:02:45.171Z,17.73
2022-08-19T03:05:11.971Z,17.23
2022-08-19T03:07:38.627Z,13.80
2022-08-19T03:10:06.492Z,15.65
2022-08-19T03:12:36.960Z,14.75
2022-08-19T03:15:04.740Z,15.02
2022-08-19T03:17:31.391Z,14.15
2022-08-19T03:19:59.567Z,15.02
2022-08-19T03:22:26.161Z,16.00
2022-08-19T03:24:52.712Z,15.10
2022-08-19T03:27:19.264Z,15.68
2022-08-19T03:29:45.771Z,15.98
2022-08-19T03:32:32.133Z,15.88
2022-08-19T03:35:00.268Z,15.35
2022-08-19T03:37:26.815Z,16.48
2022-08-19T03:39:53.472Z,16.17
2022-08-19T03:42:32.991Z,17.58
2022-08-19T03:45:07.862Z,16.70
2022-08-19T03:47:34.478Z,18.35
2022-08-19T03:50:02.976Z,17.65
2022-08-19T03:52:29.541Z,16.88
2022-08-19T03:54:56.142Z,17.60
2022-08-19T03:57:30.648Z,16.52
2022-08-19T04:00:06.846Z,16.27
2022-08-19T04:02:39.938Z,16.08
2022-08-19T04:05:08.566Z,15.80
2022-08-19T04:07:35.124Z,16.23
2022-08-19T04:10:01.702Z,16.10
2022-08-19T04:12:29.102Z,14.38
2022-08-19T04:14:55.681Z,14.93
2022-08-19T04:17:22.210Z,13.02
2022-08-19T04:19:48.891Z,13.40
2022-08-19T04:22:16.837Z,13.77
2022-08-19T04:24:43.404Z,15.18
2022-08-19T04:27:09.959Z,15.77
2022-08-19T04:29:36.496Z,16.40
2022-08-19T04:32:09.142Z,14.95
2022-08-19T04:34:37.171Z,15.02
2022-08-19T04:37:25.404Z,15.13
2022-08-19T04:39:52.007Z,14.98
2022-08-19T04:42:30.867Z,15.25
2022-08-19T04:44:57.780Z,15.05
2022-08-19T04:47:49.115Z,14.57
2022-08-19T04:50:12.243Z,14.48
2022-08-19T04:52:40.423Z,15.00
2022-08-19T04:55:07.537Z,14.65
2022-08-19T04:57:34.191Z,14.55
2022-08-19T05:00:00.757Z,14.07
2022-08-19T05:02:27.321Z,14.45
2022-08-19T05:04:58.114Z,13.93
2022-08-19T05:07:24.674Z,14.50
2022-08-19T05:09:58.215Z,14.60
2022-08-19T05:12:29.177Z,14.68
2022-08-19T05:14:56.802Z,14.80
2022-08-19T05:17:27.522Z,14.93
2022-08-19T05:19:55.540Z,15.30
2022-08-19T05:22:22.127Z,14.48
2022-08-19T05:25:11.283Z,15.63
2022-08-19T05:27:36.927Z,15.27
2022-08-19T05:30:05.108Z,15.52
2022-08-19T05:32:31.745Z,16.02
2022-08-19T05:34:58.311Z,15.18
2022-08-19T05:37:24.888Z,15.52
2022-08-19T05:39:51.834Z,15.50
2022-08-19T05:42:18.508Z,13.93
2022-08-19T05:44:46.487Z,14.90
2022-08-19T05:47:14.421Z,13.82
2022-08-19T05:49:41.398Z,13.75
2022-08-19T05:52:10.609Z,13.20
2022-08-19T05:54:38.896Z,13.65
2022-08-19T05:57:05.498Z,13.35
2022-08-19T05:59:32.115Z,13.80
2022-08-19T06:02:00.008Z,14.23
2022-08-19T06:04:26.614Z,13.55
2022-08-19T06:06:54.605Z,13.20
2022-08-19T06:09:22.539Z,12.75
2022-08-19T06:11:54.110Z,13.60
2022-08-19T06:14:27.929Z,13.73
2022-08-19T06:16:55.259Z,13.73
2022-08-19T06:19:23.995Z,12.98
2022-08-19T06:21:51.703Z,13.02
2022-08-19T06:24:20.732Z,13.43
2022-08-19T06:26:49.922Z,13.52
2022-08-19T06:29:23.426Z,14.35
2022-08-19T06:31:53.018Z,13.40
2022-08-19T06:34:20.279Z,13.15
2022-08-19T06:36:50.381Z,14.05
2022-08-19T06:39:19.086Z,14.25
2022-08-19T06:41:51.791Z,13.45
2022-08-19T06:44:22.710Z,13.35
2022-08-19T06:46:54.867Z,13.23
2022-08-19T06:49:21.882Z,14.38
2022-08-19T06:51:51.790Z,13.65
2022-08-19T06:54:20.265Z,12.98
2022-08-19T06:56:47.457Z,13.05
2022-08-19T06:59:16.567Z,13.88
2022-08-19T07:01:46.300Z,14.40
2022-08-19T07:04:14.954Z,13.45
2022-08-19T07:06:44.377Z,13.32
2022-08-19T07:09:18.423Z,13.18
2022-08-19T07:11:46.652Z,14.52
2022-08-19T07:14:19.400Z,15.50
2022-08-19T07:16:46.594Z,14.50
2022-08-19T07:19:15.913Z,14.30
2022-08-19T07:21:43.162Z,14.45
2022-08-19T07:24:10.011Z,15.90
2022-08-19T07:26:42.957Z,14.80
2022-08-19T07:29:10.513Z,15.13
2022-08-19T07:31:37.132Z,16.00
2022-08-19T07:34:06.216Z,15.63
2022-08-19T07:36:32.882Z,15.68
2022-08-19T07:39:00.715Z,14.70
2022-08-19T07:41:29.041Z,16.00
2022-08-19T07:43:57.149Z,16.02
2022-08-19T07:46:23.721Z,16.00
2022-08-19T07:48:52.211Z,15.70
2022-08-19T07:51:29.541Z,15.30
2022-08-19T07:54:04.726Z,16.08
2022-08-19T07:56:31.619Z,15.98
2022-08-19T07:58:59.482Z,16.33
2022-08-19T08:01:28.269Z,16.23
2022-08-19T08:03:56.817Z,16.35
2022-08-19T08:06:23.541Z,15.95
2022-08-19T08:08:50.131Z,15.45
2022-08-19T08:11:20.895Z,16.33
2022-08-19T08:13:48.637Z,16.58
2022-08-19T08:16:29.898Z,16.23
2022-08-19T08:18:56.712Z,16.63
2022-08-19T08:21:24.251Z,16.05
2022-08-19T08:23:53.185Z,15.75
2022-08-19T08:26:20.974Z,16.65
2022-08-19T08:28:47.959Z,15.80
2022-08-19T08:31:16.079Z,15.50
2022-08-19T08:33:44.215Z,17.33
2022-08-19T08:36:12.213Z,17.48
2022-08-19T08:38:41.019Z,16.65
2022-08-19T08:41:18.567Z,16.45
2022-08-19T08:43:47.242Z,16.40
2022-08-19T08:46:30.490Z,16.02
2022-08-19T08:49:05.960Z,15.75
2022-08-19T08:51:36.430Z,15.70
2022-08-19T08:54:06.962Z,15.32
2022-08-19T08:56:34.205Z,15.85
2022-08-19T08:59:05.362Z,17.63
2022-08-19T09:01:32.095Z,16.88
2022-08-19T09:04:02.795Z,17.52
2022-08-19T09:06:40.583Z,18.55
2022-08-19T09:09:17.925Z,17.48
2022-08-19T09:12:05.231Z,17.80
2022-08-19T09:14:50.281Z,18.15
2022-08-19T09:17:18.537Z,18.30
2022-08-19T09:19:55.688Z,17.20
2022-08-19T09:22:25.570Z,17.67
2022-08-19T09:24:53.314Z,17.35
2022-08-19T09:27:20.327Z,18.08
2022-08-19T09:29:47.018Z,16.58
2022-08-19T09:32:26.441Z,18.80
2022-08-19T09:34:55.372Z,17.10
2022-08-19T09:37:22.331Z,18.92
2022-08-19T09:39:51.941Z,17.75
2022-08-19T09:42:29.715Z,18.15
2022-08-19T09:44:57.198Z,17.85
2022-08-19T09:47:26.620Z,17.58
2022-08-19T09:49:53.179Z,16.95
2022-08-19T09:52:21.250Z,18.20
2022-08-19T09:54:51.982Z,17.35
2022-08-19T09:57:18.848Z,18.13
2022-08-19T09:59:45.423Z,18.00
2022-08-19T10:02:12.049Z,18.48
2022-08-19T10:04:39.333Z,18.20
2022-08-19T10:07:07.021Z,17.05
2022-08-19T10:09:35.784Z,17.05
2022-08-19T10:12:03.773Z,18.23
2022-08-19T10:14:30.689Z,18.33
2022-08-19T10:16:59.231Z,17.13
2022-08-19T10:19:26.470Z,17.10
2022-08-19T10:21:53.526Z,16.70
2022-08-19T10:24:20.197Z,16.90
2022-08-19T10:26:48.434Z,16.88
2022-08-19T10:29:32.897Z,16.10
2022-08-19T10:32:02.635Z,17.73
2022-08-19T10:34:30.841Z,15.68
2022-08-19T10:37:00.593Z,16.15
2022-08-19T10:39:28.656Z,16.13
2022-08-19T10:41:58.876Z,15.75
2022-08-19T10:44:32.304Z,15.57
2022-08-19T10:47:00.394Z,15.48
2022-08-19T10:49:28.020Z,16.35
2022-08-19T10:51:55.153Z,15.75
2022-08-19T10:54:31.142Z,14.15
2022-08-19T10:57:00.586Z,13.52
2022-08-19T10:59:35.282Z,13.98
2022-08-19T11:02:05.888Z,13.30
2022-08-19T11:04:32.585Z,13.25
2022-08-19T11:06:59.130Z,13.13
2022-08-19T11:09:33.699Z,12.35
2022-08-19T11:12:02.805Z,11.07
2022-08-19T11:14:31.323Z,11.88
2022-08-19T11:17:00.680Z,11.00
2022-08-19T11:19:27.398Z,11.18
2022-08-19T11:21:54.504Z,10.32
2022-08-19T11:24:26.251Z,11.38
2022-08-19T11:27:01.119Z,10.23
2022-08-19T11:29:29.270Z,10.75
2022-08-19T11:31:55.947Z,9.88
2022-08-19T11:34:25.847Z,10.85
2022-08-19T11:36:52.696Z,10.48
2022-08-19T11:39:20.959Z,10.13
2022-08-19T11:41:48.109Z,10.23
2022-08-19T11:44:14.990Z,9.50
2022-08-19T11:46:44.265Z,10.27
2022-08-19T11:49:13.973Z,9.88
2022-08-19T11:51:41.640Z,9.38
2022-08-19T11:54:08.370Z,8.68
2022-08-19T11:56:35.057Z,9.15
2022-08-19T11:59:02.158Z,9.43
2022-08-19T12:01:29.068Z,9.80
2022-08-19T12:03:58.166Z,8.20
2022-08-19T12:06:28.052Z,8.88
2022-08-19T12:08:55.226Z,8.20
2022-08-19T12:11:22.272Z,8.05
2022-08-19T12:13:49.045Z,7.97
2022-08-19T12:16:17.743Z,8.05
2022-08-19T12:18:45.319Z,7.75
2022-08-19T12:21:13.717Z,7.43
2022-08-19T12:23:40.744Z,7.88
2022-08-19T12:26:09.481Z,7.50
2022-08-19T12:28:36.522Z,7.78
2022-08-19T12:31:03.200Z,8.35
2022-08-19T12:33:29.931Z,7.60
2022-08-19T12:36:02.109Z,7.68
2022-08-19T12:38:30.080Z,8.05
2022-08-19T12:41:00.175Z,8.05
2022-08-19T12:43:27.295Z,8.32
2022-08-19T12:45:53.957Z,8.55
2022-08-19T12:48:34.246Z,9.10
2022-08-19T12:51:01.969Z,10.23
2022-08-19T12:53:30.061Z,9.02
2022-08-19T12:55:56.775Z,9.90
2022-08-19T12:58:27.206Z,10.27
2022-08-19T13:00:54.641Z,10.75
2022-08-19T13:03:21.759Z,9.82
2022-08-19T13:05:48.402Z,10.50
2022-08-19T13:08:14.961Z,9.88
2022-08-19T13:10:42.910Z,10.45
2022-08-19T13:13:10.480Z,10.32
2022-08-19T13:15:39.221Z,10.18
2022-08-19T13:18:06.007Z,10.07
2022-08-19T13:20:32.764Z,9.73
2022-08-19T13:22:59.316Z,10.05
2022-08-19T13:25:26.458Z,9.70
2022-08-19T13:27:54.490Z,10.68
2022-08-19T13:30:21.442Z,10.70
2022-08-19T13:32:48.911Z,9.50
2022-08-19T13:35:16.946Z,10.38
2022-08-19T13:37:44.146Z,10.20
2022-08-19T13:40:14.392Z,10.27
2022-08-19T13:42:41.310Z,9.68
2022-08-19T13:45:10.419Z,10.00
2022-08-19T13:47:37.214Z,9.27
2022-08-19T13:50:03.971Z,9.98
2022-08-19T13:52:30.592Z,9.38
2022-08-19T13:54:57.356Z,9.13
2022-08-19T13:57:23.944Z,9.98
2022-08-19T13:59:50.558Z,10.07
2022-08-19T14:02:18.496Z,9.55
2022-08-19T14:04:45.157Z,9.45
2022-08-19T14:07:11.768Z,9.75
2022-08-19T14:09:38.317Z,9.07
2022-08-19T14:12:05.564Z,9.27
2022-08-19T14:14:32.224Z,9.13
2022-08-19T14:16:58.780Z,9.02
2022-08-19T14:19:29.994Z,8.68
2022-08-19T14:21:56.995Z,10.15
2022-08-19T14:24:23.558Z,10.15
2022-08-19T14:26:50.109Z,10.68
2022-08-19T14:29:17.207Z,9.85
2022-08-19T14:31:44.042Z,10.85
2022-08-19T14:34:11.437Z,11.50
2022-08-19T14:36:39.503Z,13.07
2022-08-19T14:39:06.459Z,12.40
2022-08-19T14:41:33.052Z,12.20
2022-08-19T14:43:59.819Z,12.73
2022-08-19T14:46:29.604Z,13.00
2022-08-19T14:48:57.070Z,14.05
2022-08-19T14:51:26.972Z,14.10
2022-08-19T14:53:55.174Z,13.82
2022-08-19T14:56:24.605Z,13.45
2022-08-19T14:58:51.263Z,13.57
2022-08-19T15:01:18.772Z,12.73
2022-08-19T15:03:45.373Z,12.32
2022-08-19T15:06:12.802Z,12.77
2022-08-19T15:08:41.887Z,12.07
2022-08-19T15:11:11.885Z,10.98
2022-08-19T15:13:38.885Z,10.93
2022-08-19T15:16:05.935Z,10.65
2022-08-19T15:18:42.123Z,10.20
2022-08-19T15:21:08.749Z,10.30
2022-08-19T15:23:35.426Z,9.88
2022-08-19T15:26:02.119Z,9.93
2022-08-19T15:28:30.121Z,9.45
2022-08-19T15:30:56.702Z,9.43
2022-08-19T15:33:23.236Z,9.32
2022-08-19T15:35:49.957Z,9.50
2022-08-19T15:38:16.533Z,9.25
2022-08-19T15:40:43.118Z,8.27
2022-08-19T15:43:09.855Z,8.73
2022-08-19T15:45:37.911Z,8.68
2022-08-19T15:48:05.083Z,7.78
2022-08-19T15:50:32.283Z,7.05
2022-08-19T15:53:01.353Z,7.07
2022-08-19T15:55:33.301Z,6.72
2022-08-19T15:58:01.809Z,6.43
2022-08-19T16:00:28.407Z,6.38
2022-08-19T16:02:56.354Z,6.60
2022-08-19T16:05:26.531Z,6.65
2022-08-19T16:07:53.386Z,7.40
2022-08-19T16:10:26.429Z,6.95
2022-08-19T16:12:54.367Z,7.03
2022-08-19T16:15:21.276Z,7.40
2022-08-19T16:17:55.434Z,7.47
2022-08-19T16:20:26.046Z,7.10
2022-08-19T16:22:54.502Z,7.75
2022-08-19T16:25:21.142Z,7.63
2022-08-19T16:27:54.243Z,7.35
2022-08-19T16:30:33.691Z,7.55
2022-08-19T16:33:00.288Z,7.10
2022-08-19T16:35:28.223Z,7.20
2022-08-19T16:37:54.900Z,7.32
2022-08-19T16:40:22.798Z,7.45
2022-08-19T16:42:49.606Z,6.82
2022-08-19T16:45:16.183Z,7.38
2022-08-19T16:47:42.780Z,6.63
2022-08-19T16:50:09.657Z,7.10
2022-08-19T16:52:37.619Z,7.15
2022-08-19T16:55:05.279Z,7.35
2022-08-19T16:57:31.973Z,7.82
2022-08-19T16:59:58.568Z,8.23
2022-08-19T17:02:29.499Z,8.20
2022-08-19T17:04:58.785Z,9.13
2022-08-19T17:07:26.972Z,8.70
2022-08-19T17:09:55.177Z,9.20
2022-08-19T17:12:22.198Z,9.32
2022-08-19T17:14:57.565Z,9.80
2022-08-19T17:17:28.785Z,10.20
2022-08-19T17:19:56.021Z,9.23
2022-08-19T17:22:22.746Z,10.23
2022-08-19T17:24:49.417Z,10.52
2022-08-19T17:27:17.328Z,12.40
2022-08-19T17:29:46.917Z,12.85
2022-08-19T17:32:14.055Z,15.70
2022-08-19T17:34:40.834Z,17.98
2022-08-19T17:37:07.458Z,20.08
2022-08-19T17:39:37.149Z,19.67
2022-08-19T17:42:06.787Z,22.45
2022-08-19T17:44:36.391Z,22.90
2022-08-19T17:47:03.156Z,23.08
2022-08-19T17:49:29.783Z,23.98
2022-08-19T17:51:59.414Z,24.02
2022-08-19T17:54:31.910Z,24.60
2022-08-19T17:57:00.442Z,25.83
2022-08-19T17:59:30.091Z,26.63
2022-08-19T18:01:58.206Z,26.85
2022-08-19T18:04:26.189Z,26.02
2022-08-19T18:06:55.100Z,26.92
2022-08-19T18:09:24.590Z,26.83
2022-08-19T18:11:53.671Z,27.38
2022-08-19T18:14:20.854Z,26.48
2022-08-19T18:16:47.407Z,27.88
2022-08-19T18:19:15.370Z,26.80
2022-08-19T18:21:41.938Z,25.80
2022-08-19T18:24:08.582Z,26.42
2022-08-19T18:26:35.161Z,24.20
2022-08-19T18:29:01.791Z,24.83
2022-08-19T18:31:28.533Z,25.08
2022-08-19T18:33:55.219Z,24.83
2022-08-19T18:36:50.120Z,26.52
2022-08-19T18:39:09.806Z,24.77
2022-08-19T18:41:38.936Z,25.65
2022-08-19T18:44:05.470Z,25.73
2022-08-19T18:46:33.036Z,25.13
2022-08-19T18:49:03.586Z,24.15
2022-08-19T18:51:32.071Z,21.92
2022-08-19T18:53:59.318Z,23.63
2022-08-19T18:56:27.715Z,21.65
2022-08-19T18:58:54.690Z,22.15
2022-08-19T19:01:25.042Z,20.98
2022-08-19T19:03:54.630Z,21.40
2022-08-19T19:06:24.519Z,20.92
2022-08-19T19:08:53.751Z,19.65
2022-08-19T19:11:24.606Z,20.23
2022-08-19T19:13:51.406Z,19.80
2022-08-19T19:16:22.429Z,18.67
2022-08-19T19:18:50.939Z,18.42
2022-08-19T19:21:17.713Z,17.95
2022-08-19T19:23:44.274Z,18.58
2022-08-19T19:26:13.268Z,19.00
2022-08-19T19:28:41.239Z,17.88
2022-08-19T19:31:12.721Z,18.48
2022-08-19T19:33:40.012Z,17.60
2022-08-19T19:36:06.813Z,16.83
2022-08-19T19:38:33.415Z,17.63
2022-08-19T19:41:00.111Z,17.60
2022-08-19T19:43:28.093Z,16.35
2022-08-19T19:45:54.804Z,19.17
2022-08-19T19:48:21.375Z,17.80
2022-08-19T19:50:53.937Z,17.23
2022-08-19T19:53:24.102Z,16.55
2022-08-19T19:55:53.720Z,17.27
2022-08-19T19:58:21.277Z,18.45
2022-08-19T20:00:58.051Z,17.02
2022-08-19T20:03:24.785Z,17.55
2022-08-19T20:05:51.391Z,16.45
2022-08-19T20:08:18.552Z,18.25
2022-08-19T20:10:46.024Z,18.50
2022-08-19T20:13:13.016Z,17.42
2022-08-19T20:15:42.626Z,17.67
2022-08-19T20:18:11.658Z,16.73
2022-08-19T20:20:39.119Z,15.80
2022-08-19T20:23:06.228Z,14.45
2022-08-19T20:25:33.260Z,14.32
2022-08-19T20:27:59.901Z,14.32
2022-08-19T20:30:28.557Z,14.32
2022-08-19T20:32:57.672Z,14.23
2022-08-19T20:35:25.693Z,15.15
2022-08-19T20:37:57.555Z,15.55
2022-08-19T20:40:25.030Z,16.10
2022-08-19T20:42:51.656Z,16.98
2022-08-19T20:45:32.136Z,16.48
2022-08-19T20:48:00.173Z,14.75
2022-08-19T20:50:30.179Z,17.80
2022-08-19T20:52:57.634Z,18.15
2022-08-19T20:55:24.825Z,15.85
2022-08-19T20:57:51.640Z,16.88
2022-08-19T21:00:18.820Z,15.43
2022-08-19T21:02:46.483Z,15.70
2022-08-19T21:05:13.104Z,17.48
2022-08-19T21:07:41.082Z,18.65
2022-08-19T21:10:08.383Z,18.58
2022-08-19T21:12:34.986Z,20.00
2022-08-19T21:15:01.633Z,19.85
2022-08-19T21:17:28.223Z,19.60
2022-08-19T21:19:54.788Z,20.35
2022-08-19T21:22:21.433Z,19.60
2022-08-19T21:24:49.374Z,19.63
2022-08-19T21:27:15.926Z,18.85
2022-08-19T21:29:42.511Z,20.33
2022-08-19T21:32:09.116Z,20.45
2022-08-19T21:34:37.068Z,20.13
2022-08-19T21:37:03.832Z,19.33
2022-08-19T21:39:30.624Z,19.55
2022-08-19T21:41:58.524Z,19.75
2022-08-19T21:44:25.079Z,18.92
2022-08-19T21:46:51.708Z,20.65
2022-08-19T21:49:18.283Z,19.25
2022-08-19T21:51:45.383Z,17.73
2022-08-19T21:54:13.980Z,19.02
2022-08-19T21:56:41.358Z,18.48
2022-08-19T21:59:09.308Z,19.33
2022-08-19T22:01:35.854Z,18.80
2022-08-19T22:04:02.428Z,18.77
2022-08-19T22:06:29.024Z,18.25
2022-08-19T22:08:55.749Z,19.50
2022-08-19T22:11:22.432Z,18.65
2022-08-19T22:13:49.181Z,17.95
2022-08-19T22:16:17.291Z,19.00
2022-08-19T22:18:43.841Z,19.55
2022-08-19T22:21:12.226Z,19.05
2022-08-19T22:23:39.626Z,19.02
2022-08-19T22:26:06.262Z,21.40
2022-08-19T22:28:32.954Z,20.38
2022-08-19T22:30:59.492Z,21.45
2022-08-19T22:33:27.853Z,21.13
2022-08-19T22:35:54.473Z,23.65
2022-08-19T22:38:22.326Z,21.75
2022-08-19T22:40:50.343Z,22.67
2022-08-19T22:43:18.590Z,24.73
2022-08-19T22:45:49.092Z,25.65
2022-08-19T22:48:19.728Z,25.63
2022-08-19T22:50:49.300Z,25.58
2022-08-19T22:53:15.844Z,24.75
2022-08-19T22:55:42.432Z,25.55
2022-08-19T22:58:08.986Z,26.63
2022-08-19T23:00:35.664Z,24.83
2022-08-19T23:03:02.295Z,25.05
2022-08-19T23:05:29.277Z,21.58
2022-08-19T23:07:58.397Z,21.33
2022-08-19T23:10:27.806Z,19.08
2022-08-19T23:12:56.477Z,18.75
2022-08-19T23:15:26.857Z,16.23
2022-08-19T23:17:54.874Z,15.93
2022-08-19T23:20:22.757Z,16.73
2022-08-19T23:22:49.563Z,16.42
2022-08-19T23:25:20.090Z,16.63
2022-08-19T23:27:48.197Z,15.35
2022-08-19T23:30:14.790Z,15.45
2022-08-19T23:32:41.373Z,15.30
2022-08-19T23:35:08.650Z,14.70
2022-08-19T23:37:35.245Z,14.32
2022-08-19T23:40:02.112Z,14.60
2022-08-19T23:42:30.062Z,14.63
2022-08-19T23:45:00.839Z,14.88
2022-08-19T23:47:27.367Z,15.45
2022-08-19T23:49:56.284Z,15.65
2022-08-19T23:52:22.837Z,15.80
2022-08-19T23:54:49.423Z,15.95
2022-08-19T23:57:16.027Z,15.90
2022-08-19T23:59:44.646Z,14.88
